Time;durP1;ratioP1;P1;durP2;ratioP2;P2;SDS_P1;SDS_P2;PMS_P1;PMS_P2;Temp;Humidity;BMP_temperature;BMP_pressure;BME280_temperature;BME280_humidity;BME280_pressure;Samples;Min_cycle;Max_cycle;Signal;HPM_P1;HPM_P2
2023/11/06 03:23:20;;;;;;;;;;;;;;;;;;;;;
2023/11/06 04:30:58;;;;;;;;;;;;;;;;;;;;;
2023/11/06 05:28:51;;;;;;;;;;;;;;;;;;;;;
2023/11/06 05:41:25;;;;;;;;;;;;;;;;;;;;;
2023/11/06 06:05:23;;;;;;;;;;;;;;;;;;;;;
2023/11/06 06:11:46;;;;;;;;;;;;;;;;;;;;;
2023/11/06 06:14:31;;;;;;;;;;;;;;;;;;;;;
2023/11/06 06:17:47;;;;;;;;;;;;;;;;;;;;;
2023/11/06 06:48:25;;;;;;;;;0.00;0.00;;;;;;;;5895521;24;45234;-94
2023/11/06 06:51:20;;;;;;;;;;;;;;;;;;;;;
2023/11/06 06:54:11;;;;;;;;;0.00;0.00;;;;;;;;5894036;24;74872;-92
2023/11/06 06:57:07;;;;;;;;;;;;;;;;;;;;;
2023/11/06 06:59:34;;;;;;;;;0.00;0.00;;;;;;;;5945039;23;67532;-89
2023/11/06 07:02:01;;;;;;;;;0.00;0.00;;;;;;;;6061936;23;45498;-87
2023/11/06 07:04:27;;;;;;;;;0.00;0.00;;;;;;;;6038030;23;47113;-86
2023/11/06 07:06:52;;;;;;;;;0.00;0.00;;;;;;;;6061773;23;45404;-87
2023/11/06 07:12:23;;;;;;;;;0.00;0.00;;;;;;;;6062373;23;45210;-85
2023/11/06 07:14:48;;;;;;;;;0.00;0.00;;;;;;;;6052273;23;47267;-84
2023/11/06 07:17:14;;;;;;;;;0.00;0.00;;;;;;;;6180224;23;45225;-83
2023/11/06 07:19:39;;;;;;;;;0.00;0.00;;;;;;;;6180266;23;45449;-83
2023/11/06 07:22:07;;;;;;;;;0.00;0.00;;;;;;;;6155288;23;45244;-85
2023/11/06 07:24:34;;;;;;;;;0.00;0.00;;;;;;;;6198508;22;46161;-83
2023/11/06 07:27:02;;;;;;;;;0.00;0.00;;;;;;;;6242924;22;45505;-86
2023/11/06 07:29:27;;;;;;;;;0.00;0.00;;;;;;;;6215880;22;45292;-83
2023/11/06 07:31:53;;;;;;;;;0.00;0.00;;;;;;;;6243288;22;45378;-83
2023/11/06 07:34:18;;;;;;;;;0.00;0.00;;;;;;;;6216221;22;47292;-83
2023/11/06 07:36:43;;;;;;;;;0.25;0.25;;;;;;;;6243727;22;45286;-84
2023/11/06 07:39:16;;;;;;;;;0.00;0.00;;;;;;;;6243004;22;45247;-87
2023/11/06 07:41:44;;;;;;;;;0.00;0.00;;;;;;;;6244777;22;45252;-87
2023/11/06 07:47:13;;;;;;;;;0.00;0.00;;;;;;;;6215853;22;45311;-86
2023/11/06 07:52:40;;;;;;;;;0.00;0.00;;;;;;;;6244028;22;45283;-87
2023/11/06 07:55:06;;;;;;;;;0.00;0.00;;;;;;;;6242980;22;46963;-86
2023/11/06 07:57:31;;;;;;;;;0.00;0.00;;;;;;;;6244593;22;45341;-86
2023/11/06 08:00:04;;;;;;;;;0.00;0.00;;;;;;;;6244486;22;45409;-86
2023/11/06 08:02:34;;;;;;;;;0.00;0.00;;;;;;;;6243045;22;45244;-86
2023/11/06 08:05:00;;;;;;;;;0.00;0.00;;;;;;;;6243021;22;46068;-83
2023/11/06 08:07:25;;;;;;;;;0.00;0.00;;;;;;;;6242727;22;45720;-83
2023/11/06 08:09:50;;;;;;;;;0.00;0.00;;;;;;;;6242897;22;45682;-83
2023/11/06 08:12:17;;;;;;;;;0.00;0.00;;;;;;;;6243072;22;45351;-84
2023/11/06 08:14:42;;;;;;;;;0.00;0.00;;;;;;;;6243267;22;46098;-84
2023/11/06 08:17:07;;;;;;;;;0.00;0.00;;;;;;;;6243771;22;45114;-84
2023/11/06 08:19:38;;;;;;;;;0.00;0.00;;;;;;;;6243398;22;45107;-84
2023/11/06 08:22:04;;;;;;;;;0.00;0.00;;;;;;;;6215717;22;45488;-84
2023/11/06 08:24:29;;;;;;;;;0.00;0.00;;;;;;;;6215744;22;47057;-84
2023/11/06 08:26:54;;;;;;;;;0.00;0.00;;;;;;;;6243174;22;45221;-83
2023/11/06 08:29:19;;;;;;;;;0.67;0.00;;;;;;;;6243145;22;45247;-83
2023/11/06 08:31:45;;;;;;;;;0.00;0.00;;;;;;;;6242970;22;45423;-84
2023/11/06 08:34:12;;;;;;;;;0.00;0.00;;;;;;;;6215766;22;48444;-84
2023/11/06 08:36:42;;;;;;;;;0.00;0.00;;;;;;;;6242327;22;45101;-83
2023/11/06 08:39:07;;;;;;;;;0.00;0.00;;;;;;;;6243121;22;45374;-83
2023/11/06 08:41:32;;;;;;;;;0.00;0.00;;;;;;;;6243524;22;45514;-85
2023/11/06 08:43:57;;;;;;;;;0.00;0.00;;;;;;;;6242718;22;45895;-84
2023/11/06 08:46:23;;;;;;;;;0.00;0.00;;;;;;;;6243441;22;45313;-84
2023/11/06 08:48:48;;;;;;;;;0.00;0.00;;;;;;;;6243433;22;45301;-84
2023/11/06 08:51:13;;;;;;;;;0.00;0.00;;;;;;;;6242651;22;45232;-84
2023/11/06 08:53:40;;;;;;;;;3.00;0.00;;;;;;;;6243016;22;45312;-85
2023/11/06 08:56:06;;;;;;;;;0.00;0.00;;;;;;;;6243057;22;45358;-84
2023/11/06 08:58:31;;;;;;;;;0.00;0.00;;;;;;;;6243081;22;45759;-84
2023/11/06 09:01:00;;;;;;;;;0.00;0.00;;;;;;;;6242921;22;45331;-84
2023/11/06 09:03:25;;;;;;;;;0.00;0.00;;;;;;;;6215429;22;48438;-84
2023/11/06 09:05:51;;;;;;;;;0.00;0.00;;;;;;;;6243430;22;45235;-84
2023/11/06 09:08:17;;;;;;;;;0.00;0.00;;;;;;;;6242974;22;45263;-84
2023/11/06 09:10:43;;;;;;;;;0.00;0.00;;;;;;;;6242746;22;45365;-84
2023/11/06 09:13:09;;;;;;;;;0.00;0.00;;;;;;;;6243564;22;45291;-84
2023/11/06 09:15:38;;;;;;;;;0.00;0.00;;;;;;;;6242787;22;45223;-85
2023/11/06 09:18:04;;;;;;;;;0.00;0.00;;;;;;;;6242950;22;45231;-84
2023/11/06 09:20:29;;;;;;;;;0.00;0.00;;;;;;;;6242700;22;45344;-84
2023/11/06 09:22:56;;;;;;;;;0.00;0.00;;;;;;;;6242225;22;47080;-84
2023/11/06 09:25:22;;;;;;;;;0.00;0.00;;;;;;;;6242709;22;45303;-84
2023/11/06 09:27:47;;;;;;;;;0.00;0.00;;;;;;;;6243478;22;45300;-84
2023/11/06 09:30:12;;;;;;;;;0.00;0.00;;;;;;;;6242937;22;45267;-85
2023/11/06 09:32:38;;;;;;;;;0.00;0.00;;;;;;;;6215555;22;48095;-84
2023/11/06 09:35:03;;;;;;;;;0.00;0.00;;;;;;;;6215091;22;45331;-84
2023/11/06 09:37:29;;;;;;;;;0.00;0.00;;;;;;;;6242779;22;45141;-84
2023/11/06 09:39:54;;;;;;;;;0.00;0.00;;;;;;;;6242990;22;45501;-85
2023/11/06 09:42:20;;;;;;;;;0.00;0.00;;;;;;;;6242508;22;46209;-84
2023/11/06 09:44:46;;;;;;;;;0.00;0.00;;;;;;;;6215508;22;45350;-84
2023/11/06 09:47:11;;;;;;;;;0.00;0.00;;;;;;;;6242971;22;45346;-84
2023/11/06 09:49:43;;;;;;;;;0.00;0.00;;;;;;;;6242543;22;45183;-85
2023/11/06 09:52:09;;;;;;;;;0.00;0.00;;;;;;;;6215961;22;47022;-85
2023/11/06 09:54:36;;;;;;;;;0.00;0.00;;;;;;;;6242848;22;45156;-85
2023/11/06 09:57:02;;;;;;;;;0.00;0.00;;;;;;;;6242722;22;45248;-85
2023/11/06 09:59:27;;;;;;;;;0.00;0.00;;;;;;;;6242887;22;45188;-86
2023/11/06 10:01:53;;;;;;;;;0.00;0.00;;;;;;;;6242176;22;45385;-85
2023/11/06 10:04:18;;;;;;;;;0.00;0.00;;;;;;;;6242150;22;45247;-85
2023/11/06 10:06:44;;;;;;;;;0.00;0.00;;;;;;;;6242980;22;45271;-85
2023/11/06 10:09:22;;;;;;;;;2.00;0.50;;;;;;;;6242388;22;45452;-84
2023/11/06 10:11:48;;;;;;;;;0.00;0.00;;;;;;;;6242436;22;45468;-84
2023/11/06 10:14:13;;;;;;;;;0.00;0.00;;;;;;;;6242434;22;45239;-85
2023/11/06 10:16:41;;;;;;;;;0.00;0.00;;;;;;;;6242446;22;45431;-89
2023/11/06 10:19:13;;;;;;;;;0.00;0.00;;;;;;;;6242325;22;45181;-85
2023/11/06 10:21:41;;;;;;;;;0.00;0.00;;;;;;;;6242112;22;45553;-85
2023/11/06 10:24:07;;;;;;;;;0.00;0.00;;;;;;;;6242310;22;45196;-85
2023/11/06 10:26:32;;;;;;;;;0.00;0.00;;;;;;;;6242958;22;45220;-85
2023/11/06 10:29:17;;;;;;;;;0.00;0.00;;;;;;;;6242390;22;45318;-84
2023/11/06 10:31:43;;;;;;;;;0.00;0.00;;;;;;;;6241743;22;47033;-84
2023/11/06 10:34:28;;;;;;;;;0.00;0.00;;;;;;;;6242097;22;45215;-84
2023/11/06 10:37:10;;;;;;;;;0.00;0.00;;;;;;;;6242212;22;45363;-85
2023/11/06 10:39:37;;;;;;;;;0.00;0.00;;;;;;;;6215132;22;45549;-84
2023/11/06 10:42:03;;;;;;;;;0.00;0.00;;;;;;;;6214979;22;46945;-85
2023/11/06 10:44:30;;;;;;;;;0.00;0.00;;;;;;;;6242224;22;45313;-84
2023/11/06 10:46:56;;;;;;;;;0.00;0.00;;;;;;;;6214709;22;45248;-84
2023/11/06 10:49:33;;;;;;;;;0.00;0.00;;;;;;;;6214836;22;45426;-85
2023/11/06 10:51:59;;;;;;;;;0.00;0.00;;;;;;;;6241640;22;45605;-86
2023/11/06 10:54:25;;;;;;;;;0.00;0.00;;;;;;;;6215055;22;45238;-85
2023/11/06 10:56:53;;;;;;;;;1.00;0.00;;;;;;;;6242152;22;45300;-86
2023/11/06 10:59:19;;;;;;;;;0.00;0.00;;;;;;;;6242089;22;45294;-85
2023/11/06 11:01:45;;;;;;;;;0.00;0.00;;;;;;;;6242065;22;46162;-85
2023/11/06 11:04:11;;;;;;;;;0.00;0.00;;;;;;;;6241941;22;45466;-85
2023/11/06 11:06:39;;;;;;;;;0.00;0.00;;;;;;;;6215575;22;45348;-85
2023/11/06 11:09:04;;;;;;;;;0.00;0.00;;;;;;;;6243444;22;45271;-86
2023/11/06 11:11:30;;;;;;;;;0.00;0.00;;;;;;;;6243156;22;46174;-86
2023/11/06 11:13:55;;;;;;;;;0.00;0.00;;;;;;;;6243361;22;45223;-86
2023/11/06 11:16:50;;;;;;;;;0.00;0.00;;;;;;;;6242923;22;45191;-86
2023/11/06 11:19:31;;;;;;;;;0.00;0.00;;;;;;;;6239886;22;45243;-85
2023/11/06 11:22:05;;;;;;;;;0.00;0.00;;;;;;;;6243164;22;46234;-85
2023/11/06 11:24:47;;;;;;;;;0.00;0.00;;;;;;;;6243111;22;45341;-88
2023/11/06 11:27:16;;;;;;;;;0.00;0.00;;;;;;;;6216522;22;45415;-86
2023/11/06 11:29:58;;;;;;;;;0.00;0.00;;;;;;;;6243078;22;45339;-85
2023/11/06 11:32:29;;;;;;;;;0.00;0.00;;;;;;;;6243249;22;46998;-86
2023/11/06 11:34:56;;;;;;;;;0.00;0.00;;;;;;;;6243273;22;45211;-85
2023/11/06 11:37:29;;;;;;;;;0.00;0.00;;;;;;;;6243503;22;45173;-85
2023/11/06 11:39:56;;;;;;;;;0.00;0.00;;;;;;;;6243221;22;45216;-85
2023/11/06 11:42:21;;;;;;;;;0.00;0.00;;;;;;;;6242956;22;46559;-86
2023/11/06 11:44:51;;;;;;;;;0.00;0.00;;;;;;;;6215624;22;45417;-85
2023/11/06 11:47:16;;;;;;;;;0.00;0.00;;;;;;;;6243400;22;45346;-85
2023/11/06 11:49:43;;;;;;;;;0.33;0.00;;;;;;;;6243764;22;45214;-85
2023/11/06 11:52:09;;;;;;;;;0.00;0.00;;;;;;;;6243062;22;46299;-86
2023/11/06 11:54:37;;;;;;;;;0.00;0.00;;;;;;;;6243077;22;45176;-87
2023/11/06 11:57:02;;;;;;;;;0.00;0.00;;;;;;;;6243650;22;45136;-85
2023/11/06 11:59:29;;;;;;;;;0.00;0.00;;;;;;;;6242760;22;45351;-86
2023/11/06 12:01:54;;;;;;;;;0.00;0.00;;;;;;;;6242886;22;46407;-86
2023/11/06 12:04:20;;;;;;;;;0.00;0.00;;;;;;;;6243548;22;45301;-86
2023/11/06 12:06:46;;;;;;;;;0.00;0.00;;;;;;;;6243327;22;45443;-86
2023/11/06 12:09:11;;;;;;;;;0.00;0.00;;;;;;;;6215912;22;45417;-85
2023/11/06 12:11:37;;;;;;;;;0.00;0.00;;;;;;;;6243352;22;45448;-85
2023/11/06 12:14:03;;;;;;;;;0.00;0.00;;;;;;;;6242568;22;45393;-85
2023/11/06 12:16:28;;;;;;;;;1.00;0.00;;;;;;;;6243415;22;45357;-85
2023/11/06 12:18:56;;;;;;;;;0.00;0.00;;;;;;;;6243107;22;45255;-85
2023/11/06 12:21:22;;;;;;;;;0.00;0.00;;;;;;;;6215805;22;47166;-85
2023/11/06 12:23:47;;;;;;;;;0.00;0.00;;;;;;;;6242872;22;45231;-86
2023/11/06 12:26:15;;;;;;;;;0.00;0.00;;;;;;;;6243653;22;45245;-85
2023/11/06 12:28:42;;;;;;;;;0.00;0.00;;;;;;;;6242441;22;45521;-86
2023/11/06 12:31:07;;;;;;;;;0.00;0.00;;;;;;;;6242882;22;46240;-86
2023/11/06 12:33:36;;;;;;;;;0.00;0.00;;;;;;;;6242844;22;45375;-86
2023/11/06 12:36:02;;;;;;;;;0.00;0.00;;;;;;;;6243626;22;45310;-86
2023/11/06 12:38:35;;;;;;;;;0.00;0.00;;;;;;;;6242994;22;45501;-85
2023/11/06 12:41:03;;;;;;;;;0.00;0.00;;;;;;;;6243141;22;45216;-85
2023/11/06 12:43:30;;;;;;;;;0.00;0.00;;;;;;;;6242440;22;45374;-86
2023/11/06 12:45:55;;;;;;;;;0.00;0.00;;;;;;;;6215905;22;45304;-86
2023/11/06 12:48:23;;;;;;;;;0.00;0.00;;;;;;;;6243112;22;45326;-85
2023/11/06 12:50:54;;;;;;;;;0.00;0.00;;;;;;;;6242734;22;47236;-86
2023/11/06 12:53:20;;;;;;;;;0.00;0.00;;;;;;;;6242899;22;45440;-86
2023/11/06 12:55:45;;;;;;;;;1.00;1.00;;;;;;;;6243060;22;45310;-86
2023/11/06 12:58:10;;;;;;;;;0.00;0.00;;;;;;;;6242911;22;45749;-85
2023/11/06 13:00:37;;;;;;;;;0.00;0.00;;;;;;;;6215580;22;48228;-86
2023/11/06 13:03:03;;;;;;;;;0.00;0.00;;;;;;;;6242851;22;45340;-86
2023/11/06 13:05:29;;;;;;;;;0.00;0.00;;;;;;;;6243920;22;45355;-87
2023/11/06 13:07:54;;;;;;;;;0.00;0.00;;;;;;;;6242900;22;45299;-86
2023/11/06 13:10:21;;;;;;;;;0.67;0.67;;;;;;;;6215744;22;48144;-84
2023/11/06 13:12:47;;;;;;;;;0.00;0.00;;;;;;;;6242165;22;45271;-86
2023/11/06 13:15:14;;;;;;;;;0.00;0.00;;;;;;;;6243035;22;45327;-86
2023/11/06 13:17:39;;;;;;;;;0.00;0.00;;;;;;;;6242934;22;45330;-85
2023/11/06 13:20:24;;;;;;;;;1.00;0.00;;;;;;;;6242643;22;46211;-85
2023/11/06 13:22:51;;;;;;;;;0.00;0.00;;;;;;;;6242750;22;45435;-86
2023/11/06 13:25:16;;;;;;;;;0.00;0.00;;;;;;;;6242542;22;45474;-85
2023/11/06 13:27:41;;;;;;;;;0.00;0.00;;;;;;;;6215869;22;45471;-86
2023/11/06 13:30:09;;;;;;;;;0.00;0.00;;;;;;;;6242867;22;46570;-86
2023/11/06 13:32:34;;;;;;;;;0.00;0.00;;;;;;;;6242644;22;45254;-85
2023/11/06 13:35:07;;;;;;;;;2.00;2.00;;;;;;;;6242983;22;45260;-90
2023/11/06 13:37:32;;;;;;;;;0.00;0.00;;;;;;;;6242936;22;45330;-86
2023/11/06 13:40:05;;;;;;;;;0.00;0.00;;;;;;;;6242379;22;45323;-85
2023/11/06 13:42:31;;;;;;;;;0.00;0.00;;;;;;;;6242365;22;45427;-86
2023/11/06 13:44:56;;;;;;;;;0.00;0.00;;;;;;;;6243448;22;45253;-86
2023/11/06 13:47:21;;;;;;;;;0.00;0.00;;;;;;;;6242624;22;45434;-85
2023/11/06 13:49:49;;;;;;;;;0.00;0.00;;;;;;;;6242615;22;46318;-85
2023/11/06 13:52:26;;;;;;;;;0.00;0.00;;;;;;;;6242826;22;45441;-86
2023/11/06 13:54:52;;;;;;;;;0.00;0.00;;;;;;;;6243171;22;45133;-86
2023/11/06 13:57:21;;;;;;;;;0.00;0.00;;;;;;;;6210669;22;45221;-86
2023/11/06 13:59:46;;;;;;;;;0.00;0.00;;;;;;;;6212009;22;47036;-86
2023/11/06 14:02:16;;;;;;;;;0.00;0.00;;;;;;;;6212472;22;45297;-86
2023/11/06 14:04:49;;;;;;;;;0.00;0.00;;;;;;;;6212414;22;45147;-86
2023/11/06 14:07:14;;;;;;;;;0.00;0.00;;;;;;;;6212571;22;45383;-86
2023/11/06 14:09:46;;;;;;;;;0.00;0.00;;;;;;;;6210067;22;46966;-86
2023/11/06 14:12:13;;;;;;;;;0.00;0.00;;;;;;;;6211714;22;45262;-86
2023/11/06 14:14:38;;;;;;;;;0.00;0.00;;;;;;;;6212155;22;45295;-84
2023/11/06 14:17:04;;;;;;;;;0.00;0.00;;;;;;;;6211873;22;45246;-84
2023/11/06 14:19:29;;;;;;;;;0.00;0.00;;;;;;;;6211572;22;45950;-85
2023/11/06 14:21:55;;;;;;;;;0.00;0.00;;;;;;;;6211701;22;45322;-85
2023/11/06 14:24:20;;;;;;;;;0.00;0.00;;;;;;;;6211437;22;45155;-85
2023/11/06 14:26:45;;;;;;;;;0.00;0.00;;;;;;;;6212227;22;45179;-85
2023/11/06 14:29:11;;;;;;;;;0.00;0.00;;;;;;;;6211821;22;46176;-85
2023/11/06 14:31:36;;;;;;;;;0.00;0.00;;;;;;;;6211828;22;45109;-84
2023/11/06 14:34:01;;;;;;;;;0.00;0.00;;;;;;;;6212521;22;45440;-85
2023/11/06 14:36:26;;;;;;;;;0.00;0.00;;;;;;;;6210199;22;45253;-85
2023/11/06 14:38:52;;;;;;;;;0.00;0.00;;;;;;;;6211120;22;47323;-85
2023/11/06 14:41:17;;;;;;;;;0.00;0.00;;;;;;;;6209788;22;45468;-85
2023/11/06 14:43:42;;;;;;;;;0.00;0.00;;;;;;;;6213645;22;45203;-86
2023/11/06 14:46:09;;;;;;;;;0.00;0.00;;;;;;;;6213189;22;45375;-85
2023/11/06 14:48:35;;;;;;;;;0.00;0.00;;;;;;;;6212846;22;45632;-86
2023/11/06 14:51:00;;;;;;;;;0.00;0.00;;;;;;;;6213412;22;45590;-86
2023/11/06 14:53:26;;;;;;;;;0.00;0.00;;;;;;;;6213125;22;45693;-85
2023/11/06 14:55:54;;;;;;;;;0.00;0.00;;;;;;;;6213473;22;45313;-85
2023/11/06 14:58:20;;;;;;;;;0.00;0.00;;;;;;;;6212995;22;46344;-85
2023/11/06 15:00:45;;;;;;;;;0.00;0.00;;;;;;;;6211039;22;45924;-85
2023/11/06 15:03:11;;;;;;;;;0.00;0.00;;;;;;;;6211391;22;45314;-85
2023/11/06 15:05:36;;;;;;;;;0.00;0.00;;;;;;;;6213042;22;45299;-86
2023/11/06 15:08:02;;;;;;;;;0.00;0.00;;;;;;;;6210865;22;46992;-86
2023/11/06 15:10:27;;;;;;;;;0.00;0.00;;;;;;;;6211259;22;45265;-86
2023/11/06 15:12:53;;;;;;;;;0.00;0.00;;;;;;;;6212686;22;45401;-85
2023/11/06 15:15:21;;;;;;;;;0.00;0.00;;;;;;;;6211660;22;45162;-85
2023/11/06 15:17:47;;;;;;;;;0.00;0.00;;;;;;;;6212809;22;46169;-86
2023/11/06 15:20:14;;;;;;;;;0.00;0.00;;;;;;;;6212703;22;45302;-86
2023/11/06 15:22:39;;;;;;;;;0.00;0.00;;;;;;;;6212527;22;45146;-86
2023/11/06 15:25:11;;;;;;;;;0.00;0.00;;;;;;;;6211402;22;45373;-86
2023/11/06 15:27:36;;;;;;;;;0.00;0.00;;;;;;;;6212700;22;46506;-86
2023/11/06 15:30:02;;;;;;;;;0.00;0.00;;;;;;;;6213143;22;45301;-86
2023/11/06 15:32:27;;;;;;;;;0.00;0.00;;;;;;;;6212869;22;45305;-85
2023/11/06 15:34:53;;;;;;;;;0.00;0.00;;;;;;;;6213223;22;45253;-85
2023/11/06 15:37:18;;;;;;;;;0.00;0.00;;;;;;;;6212636;22;45377;-86
2023/11/06 15:39:43;;;;;;;;;0.00;0.00;;;;;;;;6212512;22;45306;-86
2023/11/06 15:42:09;;;;;;;;;0.00;0.00;;;;;;;;6211191;22;45388;-86
2023/11/06 15:44:34;;;;;;;;;0.00;0.00;;;;;;;;6211101;22;45557;-86
2023/11/06 15:46:59;;;;;;;;;0.00;0.00;;;;;;;;6212758;22;46366;-86
2023/11/06 15:49:24;;;;;;;;;0.00;0.00;;;;;;;;6212452;22;45444;-86
2023/11/06 15:51:49;;;;;;;;;0.00;0.00;;;;;;;;6212257;22;45239;-86
2023/11/06 15:54:16;;;;;;;;;0.00;0.00;;;;;;;;6211086;22;45526;-86
2023/11/06 15:56:44;;;;;;;;;0.00;0.00;;;;;;;;6222482;22;46414;-86
2023/11/06 15:59:11;;;;;;;;;0.00;0.00;;;;;;;;6242660;22;45239;-86
2023/11/06 16:01:36;;;;;;;;;1.00;1.00;;;;;;;;6243246;22;45299;-85
2023/11/06 16:04:03;;;;;;;;;0.00;0.00;;;;;;;;6216079;22;45255;-86
2023/11/06 16:06:28;;;;;;;;;0.00;0.00;;;;;;;;6242724;22;46395;-85
2023/11/06 16:08:53;;;;;;;;;0.00;0.00;;;;;;;;6243312;22;45318;-85
2023/11/06 16:11:20;;;;;;;;;0.00;0.00;;;;;;;;6243021;22;45257;-86
2023/11/06 16:13:48;;;;;;;;;0.00;0.00;;;;;;;;6243666;22;45464;-85
2023/11/06 16:16:13;;;;;;;;;0.00;0.00;;;;;;;;6242746;22;46876;-86
2023/11/06 16:18:38;;;;;;;;;0.00;0.00;;;;;;;;6243003;22;45205;-85
2023/11/06 16:21:04;;;;;;;;;0.00;0.00;;;;;;;;6242711;22;45220;-86
2023/11/06 16:23:30;;;;;;;;;0.00;0.00;;;;;;;;6243435;22;45224;-85
2023/11/06 16:25:55;;;;;;;;;0.00;0.00;;;;;;;;6215850;22;46891;-85
2023/11/06 16:28:20;;;;;;;;;0.00;0.00;;;;;;;;6243407;22;45277;-86
2023/11/06 16:30:45;;;;;;;;;0.00;0.00;;;;;;;;6215816;22;45446;-85
2023/11/06 16:33:11;;;;;;;;;0.00;0.00;;;;;;;;6243652;22;45472;-85
2023/11/06 16:35:36;;;;;;;;;0.00;0.00;;;;;;;;6242176;22;47083;-85
2023/11/06 16:38:02;;;;;;;;;0.00;0.00;;;;;;;;6243681;22;45287;-86
2023/11/06 16:40:27;;;;;;;;;0.00;0.00;;;;;;;;6243072;22;45370;-87
2023/11/06 16:42:58;;;;;;;;;0.00;0.00;;;;;;;;6215911;22;45430;-87
2023/11/06 16:45:23;;;;;;;;;0.00;0.00;;;;;;;;6243019;22;46319;-86
2023/11/06 16:47:48;;;;;;;;;0.00;0.00;;;;;;;;6242717;22;45180;-85
2023/11/06 16:50:18;;;;;;;;;0.00;0.00;;;;;;;;6215305;22;45285;-85
2023/11/06 16:52:43;;;;;;;;;0.00;0.00;;;;;;;;6243121;22;45279;-84
2023/11/06 16:55:09;;;;;;;;;0.00;0.00;;;;;;;;6242827;22;45488;-85
2023/11/06 16:57:34;;;;;;;;;0.00;0.00;;;;;;;;6243291;22;45282;-85
2023/11/06 16:59:59;;;;;;;;;0.00;0.00;;;;;;;;6242915;22;45275;-86
2023/11/06 17:02:25;;;;;;;;;0.00;0.00;;;;;;;;6242829;22;45180;-87
2023/11/06 17:04:50;;;;;;;;;0.00;0.00;;;;;;;;6241671;22;45264;-86
2023/11/06 17:07:15;;;;;;;;;0.00;0.00;;;;;;;;6215938;22;45642;-86
2023/11/06 17:09:41;;;;;;;;;0.00;0.00;;;;;;;;6215765;22;45260;-85
2023/11/06 17:12:07;;;;;;;;;0.00;0.00;;;;;;;;6243037;22;45386;-85
2023/11/06 17:14:32;;;;;;;;;0.00;0.00;;;;;;;;6242652;22;45351;-86
2023/11/06 17:16:57;;;;;;;;;0.00;0.00;;;;;;;;6243226;22;45335;-85
2023/11/06 17:19:23;;;;;;;;;0.00;0.00;;;;;;;;6242588;22;45145;-84
2023/11/06 17:21:48;;;;;;;;;0.00;0.00;;;;;;;;6215663;22;45544;-85
2023/11/06 17:24:13;;;;;;;;;0.00;0.00;;;;;;;;6242603;22;46140;-85
2023/11/06 17:26:38;;;;;;;;;0.00;0.00;;;;;;;;6242452;22;45234;-85
2023/11/06 17:29:04;;;;;;;;;0.00;0.00;;;;;;;;6242925;22;45141;-85
2023/11/06 17:31:29;;;;;;;;;0.00;0.00;;;;;;;;6242499;22;45524;-84
2023/11/06 17:33:55;;;;;;;;;0.00;0.00;;;;;;;;6242497;22;46093;-85
2023/11/06 17:36:23;;;;;;;;;1.00;1.00;;;;;;;;6243012;22;45231;-87
2023/11/06 17:38:48;;;;;;;;;0.00;0.00;;;;;;;;6215704;22;45275;-85
2023/11/06 17:41:13;;;;;;;;;0.00;0.00;;;;;;;;6242136;22;45454;-87
2023/11/06 17:43:39;;;;;;;;;0.00;0.00;;;;;;;;6242757;22;46074;-87
2023/11/06 17:46:10;;;;;;;;;0.00;0.00;;;;;;;;6242624;22;45268;-87
2023/11/06 17:48:39;;;;;;;;;0.00;0.00;;;;;;;;6242561;22;45322;-87
2023/11/06 17:51:07;;;;;;;;;0.00;0.00;;;;;;;;6242430;22;45437;-85
2023/11/06 17:53:34;;;;;;;;;0.00;0.00;;;;;;;;6242354;22;46392;-86
2023/11/06 17:56:03;;;;;;;;;0.00;0.00;;;;;;;;6242504;22;45339;-86
2023/11/06 17:58:30;;;;;;;;;0.00;0.00;;;;;;;;6242879;22;45315;-86
2023/11/06 18:01:01;;;;;;;;;0.00;0.00;;;;;;;;6242527;22;45342;-85
2023/11/06 18:03:26;;;;;;;;;0.75;0.75;;;;;;;;6241647;22;46333;-88
2023/11/06 18:05:52;;;;;;;;;0.00;0.00;;;;;;;;6215568;22;45285;-86
2023/11/06 18:08:28;;;;;;;;;0.00;0.00;;;;;;;;6242819;22;45455;-85
2023/11/06 18:10:56;;;;;;;;;0.00;0.00;;;;;;;;6242793;22;45572;-84
2023/11/06 18:13:43;;;;;;;;;0.00;0.00;;;;;;;;6242462;22;46132;-85
2023/11/06 18:16:09;;;;;;;;;0.00;0.00;;;;;;;;6241557;22;45267;-87
2023/11/06 18:18:35;;;;;;;;;0.00;0.00;;;;;;;;6243682;22;45268;-86
2023/11/06 18:21:00;;;;;;;;;0.00;0.00;;;;;;;;6243338;22;45418;-86
2023/11/06 18:23:29;;;;;;;;;0.00;0.00;;;;;;;;6201726;22;47091;-85
2023/11/06 18:25:55;;;;;;;;;0.00;0.00;;;;;;;;6238383;22;45382;-83
2023/11/06 18:28:20;;;;;;;;;0.00;0.00;;;;;;;;6239997;22;45179;-84
2023/11/06 18:30:47;;;;;;;;;0.00;0.00;;;;;;;;6239935;22;45593;-83
2023/11/06 18:33:12;;;;;;;;;0.00;0.00;;;;;;;;6212304;22;47198;-86
2023/11/06 18:35:37;;;;;;;;;0.00;0.00;;;;;;;;6240055;22;45382;-86
2023/11/06 18:38:24;;;;;;;;;0.00;0.00;;;;;;;;6213428;22;45324;-90
2023/11/06 18:40:50;;;;;;;;;0.00;0.00;;;;;;;;6240373;22;45485;-87
2023/11/06 18:43:15;;;;;;;;;0.00;0.00;;;;;;;;6239977;22;45831;-87
2023/11/06 18:45:58;;;;;;;;;0.00;0.00;;;;;;;;6212584;22;45381;-87
2023/11/06 18:48:23;;;;;;;;;0.00;0.00;;;;;;;;6239671;22;45233;-86
2023/11/06 18:50:49;;;;;;;;;0.00;0.00;;;;;;;;6240352;22;45227;-83
2023/11/06 18:53:14;;;;;;;;;0.00;0.00;;;;;;;;6239800;22;46267;-83
2023/11/06 18:55:39;;;;;;;;;0.00;0.00;;;;;;;;6238956;22;45192;-84
2023/11/06 18:58:06;;;;;;;;;0.00;0.00;;;;;;;;6239260;22;45327;-85
2023/11/06 19:00:31;;;;;;;;;0.00;0.00;;;;;;;;6238851;22;45764;-84
2023/11/06 19:02:57;;;;;;;;;0.00;0.00;;;;;;;;6239722;22;45667;-85
2023/11/06 19:05:22;;;;;;;;;0.00;0.00;;;;;;;;6239380;22;45365;-85
2023/11/06 19:07:47;;;;;;;;;0.00;0.00;;;;;;;;6221978;22;45829;-86
2023/11/06 19:10:12;;;;;;;;;0.00;0.00;;;;;;;;6223845;22;45324;-85
2023/11/06 19:12:37;;;;;;;;;0.00;0.00;;;;;;;;6238933;22;46387;-84
2023/11/06 19:15:04;;;;;;;;;0.00;0.00;;;;;;;;6239225;22;45789;-81
2023/11/06 19:17:30;;;;;;;;;0.00;0.00;;;;;;;;6238593;22;45363;-81
2023/11/06 19:19:55;;;;;;;;;0.00;0.00;;;;;;;;6240033;22;45749;-82
2023/11/06 19:22:20;;;;;;;;;0.00;0.00;;;;;;;;6239693;22;45410;-83
2023/11/06 19:24:52;;;;;;;;;0.00;0.00;;;;;;;;6239646;22;45286;-82
2023/11/06 19:27:17;;;;;;;;;0.00;0.00;;;;;;;;6239072;22;45303;-83
2023/11/06 19:29:43;;;;;;;;;0.00;0.00;;;;;;;;6239435;22;45313;-82
2023/11/06 19:32:09;;;;;;;;;0.00;0.00;;;;;;;;6239153;22;46663;-82
2023/11/06 19:34:35;;;;;;;;;2.25;2.25;;;;;;;;6239391;22;45239;-82
2023/11/06 19:37:01;;;;;;;;;0.00;0.00;;;;;;;;6238857;22;45370;-81
2023/11/06 19:39:26;;;;;;;;;0.00;0.00;;;;;;;;6211699;22;45306;-83
2023/11/06 19:41:53;;;;;;;;;0.00;0.00;;;;;;;;6239121;22;45287;-83
2023/11/06 19:44:18;;;;;;;;;0.00;0.00;;;;;;;;6239061;22;45090;-81
2023/11/06 19:46:44;;;;;;;;;0.00;0.00;;;;;;;;6238952;22;45147;-83
2023/11/06 19:49:09;;;;;;;;;0.00;0.00;;;;;;;;6238715;22;45388;-82
2023/11/06 19:51:35;;;;;;;;;0.00;0.00;;;;;;;;6238940;22;46847;-83
2023/11/06 19:54:00;;;;;;;;;0.00;0.00;;;;;;;;6211694;22;45409;-82
2023/11/06 19:56:26;;;;;;;;;0.00;0.00;;;;;;;;6207559;22;45399;-83
2023/11/06 19:58:51;;;;;;;;;0.00;0.00;;;;;;;;6208488;22;45299;-83
2023/11/06 20:01:16;;;;;;;;;0.00;0.00;;;;;;;;6209024;22;45619;-83
2023/11/06 20:03:41;;;;;;;;;0.00;0.00;;;;;;;;6208918;22;45350;-82
2023/11/06 20:06:07;;;;;;;;;0.00;0.00;;;;;;;;6209118;22;45258;-83
2023/11/06 20:08:32;;;;;;;;;0.00;0.00;;;;;;;;6210319;22;45546;-81
2023/11/06 20:10:58;;;;;;;;;0.00;0.00;;;;;;;;6209302;22;46227;-83
2023/11/06 20:13:26;;;;;;;;;0.00;0.00;;;;;;;;6209358;22;45299;-83
2023/11/06 20:15:51;;;;;;;;;0.00;0.00;;;;;;;;6209768;22;45363;-83
2023/11/06 20:18:16;;;;;;;;;0.00;0.00;;;;;;;;6208845;22;45207;-83
2023/11/06 20:20:41;;;;;;;;;1.00;1.00;;;;;;;;6209182;22;47074;-83
2023/11/06 20:23:08;;;;;;;;;0.00;0.00;;;;;;;;6210445;22;45345;-83
2023/11/06 20:25:33;;;;;;;;;0.00;0.00;;;;;;;;6208586;22;45226;-83
2023/11/06 20:27:58;;;;;;;;;0.00;0.00;;;;;;;;6208303;22;45159;-83
2023/11/06 20:30:24;;;;;;;;;0.00;0.00;;;;;;;;6209304;22;46407;-83
2023/11/06 20:33:06;;;;;;;;;0.00;0.00;;;;;;;;6206967;22;45332;-83
2023/11/06 20:35:31;;;;;;;;;0.00;0.00;;;;;;;;6208474;22;45286;-84
2023/11/06 20:37:57;;;;;;;;;0.00;0.00;;;;;;;;6209494;22;45703;-83
2023/11/06 20:40:22;;;;;;;;;0.00;0.00;;;;;;;;6206026;22;46964;-83
2023/11/06 20:42:48;;;;;;;;;0.00;0.00;;;;;;;;6209178;22;45404;-83
2023/11/06 20:45:14;;;;;;;;;0.00;0.00;;;;;;;;6208830;22;45175;-83
2023/11/06 20:47:40;;;;;;;;;0.00;0.00;;;;;;;;6208702;22;45227;-83
2023/11/06 20:50:06;;;;;;;;;0.00;0.00;;;;;;;;6207998;22;46460;-83
2023/11/06 20:52:31;;;;;;;;;0.00;0.00;;;;;;;;6208301;22;45389;-83
2023/11/06 20:54:58;;;;;;;;;0.00;0.00;;;;;;;;6208197;22;45803;-81
2023/11/06 20:57:23;;;;;;;;;0.00;0.00;;;;;;;;6227261;22;45345;-82
2023/11/06 20:59:48;;;;;;;;;0.00;0.00;;;;;;;;6239208;22;46330;-82
2023/11/06 21:02:13;;;;;;;;;0.00;0.00;;;;;;;;6238482;22;45317;-82
2023/11/06 21:04:39;;;;;;;;;0.00;0.00;;;;;;;;6239003;22;45327;-83
2023/11/06 21:07:04;;;;;;;;;0.00;0.00;;;;;;;;6239185;22;45322;-83
2023/11/06 21:09:30;;;;;;;;;0.00;0.00;;;;;;;;6210826;22;46682;-83
2023/11/06 21:11:55;;;;;;;;;0.00;0.00;;;;;;;;6238740;22;45169;-83
2023/11/06 21:14:20;;;;;;;;;0.00;0.00;;;;;;;;6211882;22;45443;-83
2023/11/06 21:16:45;;;;;;;;;0.00;0.00;;;;;;;;6238109;22;45184;-82
2023/11/06 21:19:11;;;;;;;;;0.00;0.00;;;;;;;;6238836;22;46105;-82
2023/11/06 21:21:37;;;;;;;;;0.00;0.00;;;;;;;;6211590;22;45418;-82
2023/11/06 21:24:02;;;;;;;;;0.00;0.00;;;;;;;;6237909;22;45713;-83
2023/11/06 21:26:29;;;;;;;;;0.00;0.00;;;;;;;;6239512;22;45207;-83
2023/11/06 21:28:54;;;;;;;;;0.00;0.00;;;;;;;;6238539;22;46325;-83